Flight Track Log - Related Links

Times and Time Zones

All times are in EDT time to prevent confusion due to time zone crossing. See the CHQ4741 flight status page for this flight to view local times or setup timezone preferences in your user account.

Time Position Orientation Groundspeed Altitude Reporting Facility
EDT Latitude Longitude Course Direction KTS MPH feet Rate Location/Type
02:48PM 40.7500 -73.8500 275° West 169 194 1,300  Level New York TRACON
02:49PM 40.7500 -73.8000 90° East 201 231 3,200 1,842 Climbing New York TRACON
02:50PM 40.7833 -73.8333 323° Northwest 260 299 4,800 2,243 Climbing New York TRACON
02:51PM 40.8000 -73.9333 282° West 255 293 7,500 2,182 Climbing New York TRACON
02:53PM 40.8392 -74.4815 275° West  Level FlightAware Approximate
02:53PM 40.8269 -74.1086 282° West 270 311 11,200  Level New York Center
02:54PM 40.8482 -74.6076 275° West  Level FlightAware Approximate
02:54PM 40.8383 -74.2217 278° West 321 369 11,700  Level New York Center
02:55PM 40.8000 -74.3167 242° Southwest 312 359 13,200 1,576 Climbing New York TRACON
02:56PM 40.7333 -74.3833 217° Southwest 311 358 14,800 1,263 Climbing New York TRACON
02:57PM 40.7167 -74.4833 258° West 334 384 15,600 667 Climbing New York TRACON
02:58PM 40.7667 -74.6167 296° West 363 418 16,200 639 Climbing New York TRACON
02:59PM 40.7950 -74.7347 288° West 360 414 16,900 362 Climbing New York Center
03:00PM 40.8306 -74.8547 291° West 369 425 16,900 645 Level New York Center
03:01PM 40.8658 -74.9775 291° West 374 430 18,200 1,150 Climbing New York Center
03:02PM 40.9047 -75.1117 291° West 369 425 19,200 857 Climbing New York Center
03:03PM 40.8997 -75.2431 267° West 349 402 19,900 400 Climbing New York Center
03:04PM 40.8739 -75.3731 255° West 349 402 20,000 50 Climbing New York Center
03:05PM 40.8439 -75.5000 253° West 354 407 20,000 500 Level New York Center
03:06PM 40.8136 -75.6297 253° West 360 414 21,000 1,200 Climbing New York Center
03:07PM 40.7836 -75.7536 252° West 365 420 22,400 1,250 Climbing New York Center
03:08PM 40.7533 -75.8772 252° West 365 420 23,500 1,050 Climbing New York Center
03:09PM 40.7228 -76.0039 252° West 360 414 24,500 1,000 Climbing New York Center
03:10PM 40.6922 -76.1275 252° West 360 414 25,500 900 Climbing New York Center
03:11PM 40.6689 -76.2294 253° West 360 414 26,300 900 Climbing New York Center
03:12PM 40.6828 -76.3756 277° West 355 409 27,300 1,000 Climbing New York Center
03:13PM 40.7036 -76.5061 282° West 361 415 28,300 1,000 Climbing New York Center
03:14PM 40.7222 -76.6392 280° West 373 429 29,300 836 Climbing New York Center
03:15PM 40.7425 -76.7725 281° West 373 429 30,000 318 Climbing New York Center
03:16PM 40.7675 -76.9361 281° West 373 429 30,000  Level New York Center
03:17PM 40.7856 -77.0667 280° West 373 429 30,000  Level New York Center
03:18PM 40.8036 -77.1944 281° West 368 423 30,000  Level New York Center
03:19PM 40.8236 -77.3281 281° West 368 423 30,000  Level New York Center
03:20PM 40.8433 -77.4589 281° West 368 423 30,000  Level New York Center
03:22PM 40.8753 -77.7058 280° West 388 447 30,000  Level Cleveland Center
03:23PM 40.8992 -77.8747 281° West 390 449 30,000  Level Cleveland Center
03:24PM 40.9200 -78.0178 281° West 394 453 30,000  Level Cleveland Center
03:25PM 40.9436 -78.1597 282° West 396 456 30,000  Level Cleveland Center
03:26PM 40.9661 -78.2956 282° West 402 463 30,000  Level Cleveland Center
03:27PM 40.9903 -78.4392 283° West 402 463 30,000 -195 Level Cleveland Center
03:28PM 41.0178 -78.6117 282° West 404 465 29,600 -829 Descending Cleveland Center
03:29PM 41.0414 -78.7619 282° West 416 479 28,300 -1,306 Descending Cleveland Center
03:30PM 41.0661 -78.9158 282° West 425 489 26,900 -1,317 Descending Cleveland Center
03:31PM 41.0911 -79.0736 282° West 436 502 25,600 -1,317 Descending Cleveland Center
03:32PM 41.1142 -79.2211 282° West 413 475 24,200 -774 Descending Cleveland Center
03:33PM 41.1358 -79.3583 282° West 383 441 24,000 -97 Descending Cleveland Center
03:34PM 41.1589 -79.5133 281° West 359 413 24,000  Level Cleveland Center
03:35PM 41.1789 -79.6458 281° West 363 418 24,000  Level Cleveland Center
03:36PM 41.1994 -79.7761 282° West 375 432 24,000  Level Cleveland Center
03:37PM 41.2208 -79.9219 281° West 401 461 24,000  Level Cleveland Center
03:38PM 41.2447 -80.0789 281° West 410 472 24,000 -726 Level Cleveland Center
03:39PM 41.2667 -80.2292 281° West 415 478 22,500 -1,610 Descending Cleveland Center
03:40PM 41.2881 -80.3775 281° West 343 395 20,700 -1,707 Descending Cleveland Center
03:41PM 41.3058 -80.5014 281° West 337 388 19,000 -1,645 Descending Cleveland Center
03:43PM 41.3233 -80.6228 281° West 334 384 17,300 -1,597 Descending Cleveland Center
03:44PM 41.3556 -80.7383 290° West 332 382 15,700 -1,512 Descending Cleveland Center
03:45PM 41.3978 -80.8489 297° West 332 382 14,200 -1,512 Descending Cleveland Center
03:46PM 41.4403 -80.9600 297° West 335 386 12,600 -1,867 Descending Cleveland Center
03:46PM 41.4642 -81.0278 295° West 335 386 11,400 -1,935 Descending Cleveland Center
03:47PM 41.4814 -81.0692 299° West 331 381 10,600 -1,674 Descending Cleveland Center
03:47PM 41.4953 -81.1050 297° West 339 390 10,200 -590 Descending Cleveland Center
03:48PM 41.5106 -81.2072 281° West 334 384 10,000 -222 Descending Cleveland Center
03:48PM 41.5111 -81.2136 277° West 332 382 10,000  Level Cleveland Center
03:49PM 41.4950 -81.3267 259° West 328 377 10,000  Level Cleveland Center
03:49PM 41.4944 -81.3336 264° West 326 375 10,000 -968 Level Cleveland Center
03:50PM 41.4797 -81.4394 260° West 314 361 9,000 -1,033 Descending Cleveland Center
03:51PM 41.4642 -81.5550 260° West 298 343 7,900 -1,065 Descending Cleveland Center
03:51PM 41.4647 -81.5489 83° East 306 352 7,900 -1,000 Level Cleveland Center
03:52PM 41.4522 -81.6425 260° West 265 305 7,000 -885 Descending Cleveland Center
03:52PM 41.4508 -81.6450 233° Southwest 272 313 7,000  Level Cleveland Center
03:53PM 41.4094 -81.7158 232° Southwest 250 288 7,000  Level Cleveland Center
03:54PM 41.3664 -81.7881 232° Southwest 205 236 7,000 -305 Level Cleveland Center
03:55PM 41.3331 -81.8436 231° Southwest 202 232 6,400 -677 Descending Cleveland Center
03:55PM 41.3300 -81.8464 214° Southwest 204 235 6,300 -393 Descending Cleveland Center
03:56PM 41.2944 -81.8986 228° Southwest 207 238 6,000 -295 Descending Cleveland Center
03:56PM 41.2911 -81.9033 227° Southwest 205 236 6,000  Level Cleveland Center
03:57PM 41.2533 -81.9558 226° Southwest 210 242 6,000  Level Cleveland Center
03:57PM 41.2514 -81.9606 241° Southwest 206 237 6,000  Level Cleveland Center
03:58PM 41.2139 -82.0161 228° Southwest 212 244 6,000 -97 Level Cleveland Center
03:58PM 41.2117 -82.0189 223° Southwest 208 239 5,900 -1,000 Descending Cleveland Center
03:59PM 41.1775 -82.0683 227° Southwest 212 244 5,100 -968 Descending Cleveland Center
03:59PM 41.1772 -82.0797 268° West 209 241 4,900 -984 Descending Cleveland Center
04:00PM 41.2019 -82.1197 309° West 168 193 4,100 -871 Descending Cleveland Center
04:00PM 41.2078 -82.1286 311° West 186 214 4,000 -98 Descending Cleveland Center
04:01PM 41.2372 -82.1256 North 145 167 4,000 -290 Level Cleveland Center
04:01PM 41.2486 -82.1119 42° Northeast 155 178 3,700 -806 Descending Cleveland Center
04:02PM 41.2692 -82.0781 51° Northeast 146 168 3,100 -677 Descending Cleveland Center
04:02PM 41.2753 -82.0700 45° Northeast 150 173 3,000 -91 Descending Cleveland Center
04:03PM 41.2958 -82.0381 49° Northeast 137 158 3,000  Level Cleveland Center
04:03PM 41.2997 -82.0306 55° Northeast 143 165 3,000  Level Cleveland Center
04:04PM 41.3208 -81.9975 50° Northeast 137 158 3,000  Level Cleveland Center
04:04PM 41.3250 -81.9922 44° Northeast 141 162 3,000 -295 Level Cleveland Center
04:05PM 41.3431 -81.9622 51° Northeast 118 136 2,700 -387 Descending Cleveland Center
04:05PM 41.3464 -81.9569 50° Northeast 131 151 2,600 -592 Descending Cleveland Center
04:06PM 41.3656 -81.9275 49° Northeast 113 130 2,000 -634 Descending Cleveland Center
04:07PM 41.3878 -81.8939 49° Northeast 113 130 1,300 -532 Descending Cleveland Center
04:08PM 41.4117 -81.8567 49° Northeast 118 136 900 -387 Descending Cleveland Center

Login

Don't have an account? Register now (free) for customized features, flight alerts, and more!